Weather History for Pratt, KS

Change the Weather History Date:

Monday, October 8, 2012

  Actual Average (KP28) Record (KP28)
Temperature  
Mean Temperature 51 °F 62 °F  
Max Temperature 69 °F 74 °F 99 °F (1979)
Min Temperature 33 °F 49 °F 26 °F (1952)
Degree Days  
Heating Degree Days 14 5  
Month to date heating degree days 35  
Since 1 July heating degree days 69  
Cooling Degree Days 0 2  
Month to date cooling degree days 21  
Year to date cooling degree days 1752  
Growing Degree Days 1 (Base 50)    
Moisture  
Dew Point 31 °F    
Average Humidity 56    
Maximum Humidity 93    
Minimum Humidity 21    
Precipitation  
Precipitation 0.00 in 0.08 in 1.75 in (1992)
Month to date precipitation 0.69  
Year to date precipitation 23.14  
Snow  
Snow 0.00 in 0.00 in - ()
Month to date snowfall 0.0  
Since 1 July snowfall 0.0  
Since 1 September snowfall 0.0  
Snow Depth -    
Sea Level Pressure  
Sea Level Pressure 30.03 in    
Wind  
Wind Speed 12 mph (SSW)    
Max Wind Speed 21 mph    
Max Gust Speed 26 mph    
Visibility 10 miles    
Events      
T = Trace of Precipitation, MM = Missing Value Source: NWS Daily Summary

Daily Weather History Graph

Daily Weather History Graph

Search for Another Location

Airport:

Trip Planner

Search our weather history database for the weather conditions in past years. The results will help you decide how hot, cold, wet, or windy it might be!

Date:

Astronomy

Oct. 08, 2012 Rise Set
Actual Time 7:37 AM CDT 7:06 PM CDT
Civil Twilight 7:11 AM CDT 7:33 PM CDT
Nautical Twilight 6:40 AM CDT 8:03 PM CDT
Astronomical Twilight 6:10 AM CDT 8:33 PM CDT
Moon 12:25 AM CDT (10/8) 2:50 PM CDT (10/8)
Length of Visible Light 12h 22m
Length of Day
11h 29m
Last Quarter, 46% of the Moon is Illuminated
Oct 8
Last Quarter
Oct 15
New
Oct 21
First Quarter
Oct 29
Full
Nov 6
Last Quarter

Hourly Weather History & Observations

Time (CDT) Temp. Windchill Dew Point Humidity Pressure Visibility Wind Dir Wind Speed Gust Speed Precip Events Conditions
12:15 AM 37.4 °F 30.3 °F 30.2 °F 75% 30.16 in 10.0 mi SW 10.4 mph - N/A   Clear
12:35 AM 35.6 °F 27.5 °F 30.2 °F 81% 30.16 in 10.0 mi SW 11.5 mph - N/A   Clear
12:55 AM 35.6 °F 28.6 °F 30.2 °F 81% 30.16 in 10.0 mi SW 9.2 mph - N/A   Clear
1:15 AM 35.6 °F 28.6 °F 30.2 °F 81% 30.15 in 10.0 mi SW 9.2 mph - N/A   Clear
1:35 AM 33.8 °F 27.0 °F 30.2 °F 87% 30.15 in 10.0 mi SW 8.1 mph - N/A   Clear
1:55 AM 33.8 °F 26.4 °F 30.2 °F 87% 30.15 in 10.0 mi SSW 9.2 mph - N/A   Clear
2:15 AM 33.8 °F 26.4 °F 30.2 °F 87% 30.14 in 10.0 mi SW 9.2 mph - N/A   Clear
2:35 AM 33.8 °F 26.4 °F 30.2 °F 87% 30.14 in 10.0 mi SW 9.2 mph - N/A   Clear
2:55 AM 33.8 °F 26.4 °F 30.2 °F 87% 30.13 in 10.0 mi SSW 9.2 mph - N/A   Clear
3:15 AM 33.8 °F 25.8 °F 30.2 °F 87% 30.12 in 10.0 mi SW 10.4 mph - N/A   Clear
3:35 AM 33.8 °F 25.3 °F 30.2 °F 87% 30.12 in 10.0 mi SW 11.5 mph - N/A   Clear
3:55 AM 33.8 °F 25.8 °F 30.2 °F 87% 30.11 in 10.0 mi SW 10.4 mph - N/A   Clear
4:15 AM 33.8 °F 25.8 °F 30.2 °F 87% 30.11 in 10.0 mi SW 10.4 mph - N/A   Clear
4:35 AM 33.8 °F 25.3 °F 30.2 °F 87% 30.10 in 10.0 mi SW 11.5 mph - N/A   Clear
4:55 AM 33.8 °F 25.8 °F 32.0 °F 93% 30.10 in 10.0 mi SW 10.4 mph - N/A   Clear
5:15 AM 33.8 °F 25.8 °F 32.0 °F 93% 30.10 in 10.0 mi SW 10.4 mph - N/A   Clear
5:35 AM 33.8 °F 25.3 °F 32.0 °F 93% 30.09 in 10.0 mi SW 11.5 mph - N/A   Clear
5:55 AM 33.8 °F 25.3 °F 32.0 °F 93% 30.09 in 10.0 mi SW 11.5 mph - N/A   Clear
6:15 AM 35.6 °F 28.0 °F 32.0 °F 87% 30.09 in 10.0 mi SW 10.4 mph - N/A   Clear
6:35 AM 35.6 °F 28.0 °F 32.0 °F 87% 30.09 in 10.0 mi SW 10.4 mph - N/A   Clear
6:55 AM 33.8 °F 25.3 °F 32.0 °F 93% 30.09 in 10.0 mi SW 11.5 mph - N/A   Clear
7:15 AM 33.8 °F 25.3 °F 32.0 °F 93% 30.08 in 10.0 mi SW 11.5 mph - N/A   Clear
7:35 AM 33.8 °F 25.3 °F 32.0 °F 93% 30.08 in 10.0 mi SW 11.5 mph - N/A   Clear
7:55 AM 33.8 °F 25.8 °F 32.0 °F 93% 30.08 in 10.0 mi SW 10.4 mph - N/A   Clear
8:15 AM 35.6 °F 29.2 °F 32.0 °F 87% 30.08 in 10.0 mi SW 8.1 mph - N/A   Clear
8:35 AM 37.4 °F 29.8 °F 32.0 °F 81% 30.09 in 10.0 mi SW 11.5 mph - N/A   Clear
8:55 AM 41.0 °F 33.5 °F 32.0 °F 70% 30.08 in 10.0 mi SW 13.8 mph - N/A   Clear
9:15 AM 42.8 °F 35.8 °F 33.8 °F 70% 30.08 in 10.0 mi SW 13.8 mph - N/A   Clear
9:35 AM 44.6 °F 37.8 °F 33.8 °F 66% 30.08 in 10.0 mi SW 15.0 mph - N/A   Clear
9:55 AM 46.4 °F 39.8 °F 33.8 °F 62% 30.08 in 10.0 mi SW 16.1 mph - N/A   Clear
10:15 AM 50.0 °F - 33.8 °F 54% 30.08 in 10.0 mi SW 15.0 mph - N/A   Clear
10:35 AM 51.8 °F - 33.8 °F 50% 30.08 in 10.0 mi SW 15.0 mph - N/A   Clear
10:55 AM 53.6 °F - 33.8 °F 47% 30.07 in 10.0 mi SW 12.7 mph 20.7 mph N/A   Clear
11:15 AM 55.4 °F - 33.8 °F 44% 30.07 in 10.0 mi SW 13.8 mph 17.3 mph N/A   Clear
11:35 AM 59.0 °F - 33.8 °F 39% 30.07 in 10.0 mi SSW 11.5 mph - N/A   Clear
11:55 AM 60.8 °F - 32.0 °F 34% 30.05 in 10.0 mi SSW 15.0 mph - N/A   Clear
12:15 PM 62.6 °F - 32.0 °F 32% 30.05 in 10.0 mi SSW 11.5 mph - N/A   Clear
12:35 PM 62.6 °F - 32.0 °F 32% 30.04 in 10.0 mi SSW 15.0 mph 20.7 mph N/A   Clear
12:55 PM 64.4 °F - 30.2 °F 28% 30.03 in 10.0 mi SSW 20.7 mph 25.3 mph N/A   Clear
1:35 PM 68.0 °F - 30.2 °F 24% 30.02 in 10.0 mi South 19.6 mph 23.0 mph N/A   Clear
1:55 PM 68.0 °F - 28.4 °F 23% 30.00 in 10.0 mi SSW 15.0 mph 26.5 mph N/A   Clear
2:15 PM 68.0 °F - 28.4 °F 23% 29.99 in 10.0 mi South 20.7 mph 26.5 mph N/A   Clear
2:35 PM 68.0 °F - 26.6 °F 21% 29.98 in 10.0 mi SSW 18.4 mph 24.2 mph N/A   Clear
2:55 PM 68.0 °F - 28.4 °F 23% 29.97 in 10.0 mi SW 15.0 mph 23.0 mph N/A   Clear
3:15 PM 68.0 °F - 26.6 °F 21% 29.96 in 10.0 mi SSW 13.8 mph 21.9 mph N/A   Clear
3:35 PM 69.8 °F - 28.4 °F 21% 29.95 in 10.0 mi SSW 13.8 mph - N/A   Clear
3:55 PM 69.8 °F - 28.4 °F 21% 29.95 in 10.0 mi SW 15.0 mph 23.0 mph N/A   Clear
4:15 PM 69.8 °F - 28.4 °F 21% 29.94 in 10.0 mi SSW 17.3 mph 23.0 mph N/A   Clear
4:35 PM 69.8 °F - 28.4 °F 21% 29.93 in 10.0 mi South 16.1 mph 23.0 mph N/A   Clear
4:55 PM 69.8 °F - 28.4 °F 21% 29.92 in 10.0 mi SSW 15.0 mph 21.9 mph N/A   Clear
5:15 PM 69.8 °F - 28.4 °F 21% 29.92 in 10.0 mi SSW 20.7 mph 25.3 mph N/A   Clear
5:35 PM 68.0 °F - 30.2 °F 24% 29.92 in 10.0 mi South 16.1 mph - N/A   Clear
5:55 PM 68.0 °F - 30.2 °F 24% 29.92 in 10.0 mi South 19.6 mph 24.2 mph N/A   Clear
6:15 PM 66.2 °F - 30.2 °F 26% 29.92 in 10.0 mi SSW 15.0 mph 21.9 mph N/A   Clear
6:55 PM 62.6 °F - 32.0 °F 32% 29.93 in 10.0 mi South 16.1 mph - N/A   Clear
7:15 PM 60.8 °F - 32.0 °F 34% 29.93 in 10.0 mi South 13.8 mph - N/A   Clear
7:35 PM 59.0 °F - 32.0 °F 36% 29.93 in 10.0 mi South 15.0 mph - N/A   Clear
7:55 PM 59.0 °F - 32.0 °F 36% 29.93 in 10.0 mi South 16.1 mph 19.6 mph N/A   Clear
8:15 PM 55.4 °F - 32.0 °F 41% 29.93 in 10.0 mi South 15.0 mph - N/A   Clear
8:35 PM 55.4 °F - 32.0 °F 41% 29.93 in 10.0 mi South 12.7 mph - N/A   Clear
8:55 PM 55.4 °F - 32.0 °F 41% 29.94 in 10.0 mi South 15.0 mph - N/A   Clear
9:15 PM 53.6 °F - 32.0 °F 44% 29.93 in 10.0 mi South 16.1 mph - N/A   Clear
9:35 PM 53.6 °F - 32.0 °F 44% 29.94 in 10.0 mi South 15.0 mph - N/A   Clear
9:55 PM 53.6 °F - 32.0 °F 44% 29.94 in 10.0 mi South 15.0 mph - N/A   Clear
10:15 PM 53.6 °F - 32.0 °F 44% 29.94 in 10.0 mi South 13.8 mph - N/A   Clear
10:55 PM 51.8 °F - 32.0 °F 47% 29.95 in 10.0 mi South 13.8 mph - N/A   Clear
11:35 PM 50.0 °F - 32.0 °F 50% 29.96 in 10.0 mi South 11.5 mph - N/A   Clear
11:55 PM 50.0 °F - 32.0 °F 50% 29.96 in 10.0 mi South 11.5 mph - N/A   Clear